sensor_id;sensor_type;location;lat;lon;timestamp;pressure;altitude;pressure_sealevel;temperature;humidity
44140;BME280;29803;51.048;4.686;2022-12-10T00:01:27;100866.44;;;-1.71;100.00
44140;BME280;29803;51.048;4.686;2022-12-10T00:03:58;100865.53;;;-1.70;100.00
44140;BME280;29803;51.048;4.686;2022-12-10T00:06:32;100861.63;;;-1.78;100.00
44140;BME280;29803;51.048;4.686;2022-12-10T00:09:06;100860.09;;;-1.83;100.00
44140;BME280;29803;51.048;4.686;2022-12-10T00:11:38;100868.19;;;-1.86;100.00
44140;BME280;29803;51.048;4.686;2022-12-10T00:14:11;100862.63;;;-1.81;100.00
44140;BME280;29803;51.048;4.686;2022-12-10T00:16:42;100856.53;;;-1.82;100.00
44140;BME280;29803;51.048;4.686;2022-12-10T00:19:12;100866.31;;;-1.84;100.00
44140;BME280;29803;51.048;4.686;2022-12-10T00:21:43;100863.09;;;-1.89;100.00
44140;BME280;29803;51.048;4.686;2022-12-10T00:24:15;100856.88;;;-1.88;100.00
44140;BME280;29803;51.048;4.686;2022-12-10T00:26:45;100854.25;;;-1.88;100.00
44140;BME280;29803;51.048;4.686;2022-12-10T00:29:16;100853.66;;;-1.93;100.00
44140;BME280;29803;51.048;4.686;2022-12-10T00:31:46;100860.22;;;-2.00;100.00
44140;BME280;29803;51.048;4.686;2022-12-10T00:34:17;100853.25;;;-2.01;100.00
44140;BME280;29803;51.048;4.686;2022-12-10T00:36:48;100856.50;;;-1.96;100.00
44140;BME280;29803;51.048;4.686;2022-12-10T00:39:20;100845.78;;;-1.93;100.00
44140;BME280;29803;51.048;4.686;2022-12-10T00:41:51;100858.75;;;-1.90;100.00
44140;BME280;29803;51.048;4.686;2022-12-10T00:44:21;100853.50;;;-1.90;100.00
44140;BME280;29803;51.048;4.686;2022-12-10T00:46:52;100849.94;;;-1.89;100.00
44140;BME280;29803;51.048;4.686;2022-12-10T00:49:22;100848.16;;;-1.88;100.00
44140;BME280;29803;51.048;4.686;2022-12-10T00:51:54;100845.53;;;-1.88;100.00
44140;BME280;29803;51.048;4.686;2022-12-10T00:54:24;100846.47;;;-1.89;100.00
44140;BME280;29803;51.048;4.686;2022-12-10T00:56:55;100849.59;;;-1.98;100.00
44140;BME280;29803;51.048;4.686;2022-12-10T00:59:25;100852.22;;;-1.98;100.00
44140;BME280;29803;51.048;4.686;2022-12-10T01:01:56;100854.03;;;-1.99;100.00
44140;BME280;29803;51.048;4.686;2022-12-10T01:04:26;100859.88;;;-1.94;100.00
44140;BME280;29803;51.048;4.686;2022-12-10T01:06:57;100860.03;;;-1.97;100.00
44140;BME280;29803;51.048;4.686;2022-12-10T01:09:30;100857.50;;;-1.98;100.00
44140;BME280;29803;51.048;4.686;2022-12-10T01:12:03;100865.38;;;-1.98;100.00
44140;BME280;29803;51.048;4.686;2022-12-10T01:14:34;100868.25;;;-2.03;100.00
44140;BME280;29803;51.048;4.686;2022-12-10T01:17:05;100871.16;;;-2.08;100.00
44140;BME280;29803;51.048;4.686;2022-12-10T01:19:35;100866.72;;;-2.07;100.00
44140;BME280;29803;51.048;4.686;2022-12-10T01:22:06;100875.41;;;-2.05;100.00
44140;BME280;29803;51.048;4.686;2022-12-10T01:24:36;100877.19;;;-2.05;100.00
44140;BME280;29803;51.048;4.686;2022-12-10T01:27:07;100881.41;;;-2.03;100.00
44140;BME280;29803;51.048;4.686;2022-12-10T01:29:37;100875.91;;;-2.14;100.00
44140;BME280;29803;51.048;4.686;2022-12-10T01:32:08;100875.91;;;-2.14;100.00
44140;BME280;29803;51.048;4.686;2022-12-10T01:34:38;100880.06;;;-2.10;100.00
44140;BME280;29803;51.048;4.686;2022-12-10T01:37:09;100870.66;;;-2.14;100.00
44140;BME280;29803;51.048;4.686;2022-12-10T01:39:39;100873.53;;;-2.19;100.00
44140;BME280;29803;51.048;4.686;2022-12-10T01:42:12;100876.06;;;-2.17;100.00
44140;BME280;29803;51.048;4.686;2022-12-10T01:47:13;100877.25;;;-2.23;100.00
44140;BME280;29803;51.048;4.686;2022-12-10T01:49:43;100889.38;;;-2.20;100.00
44140;BME280;29803;51.048;4.686;2022-12-10T01:52:14;100894.19;;;-2.28;100.00
44140;BME280;29803;51.048;4.686;2022-12-10T01:54:46;100894.94;;;-2.26;100.00
44140;BME280;29803;51.048;4.686;2022-12-10T01:57:20;100898.47;;;-2.26;100.00
44140;BME280;29803;51.048;4.686;2022-12-10T01:59:57;100897.53;;;-2.25;100.00
44140;BME280;29803;51.048;4.686;2022-12-10T02:05:23;100895.72;;;-2.24;100.00
44140;BME280;29803;51.048;4.686;2022-12-10T02:08:19;100899.66;;;-2.16;100.00
44140;BME280;29803;51.048;4.686;2022-12-10T02:11:15;100897.69;;;-2.12;100.00
44140;BME280;29803;51.048;4.686;2022-12-10T02:14:03;100903.53;;;-2.07;100.00
44140;BME280;29803;51.048;4.686;2022-12-10T02:16:59;100910.31;;;-2.03;100.00
44140;BME280;29803;51.048;4.686;2022-12-10T02:22:26;100911.84;;;-2.15;100.00
44140;BME280;29803;51.048;4.686;2022-12-10T02:25:00;100903.78;;;-2.12;100.00
44140;BME280;29803;51.048;4.686;2022-12-10T02:30:45;100909.63;;;-2.06;100.00
44140;BME280;29803;51.048;4.686;2022-12-10T02:33:18;100899.13;;;-2.06;100.00
44140;BME280;29803;51.048;4.686;2022-12-10T02:35:51;100912.34;;;-2.08;100.00
44140;BME280;29803;51.048;4.686;2022-12-10T02:38:26;100904.31;;;-2.05;100.00
44140;BME280;29803;51.048;4.686;2022-12-10T02:41:04;100910.47;;;-2.06;100.00
44140;BME280;29803;51.048;4.686;2022-12-10T02:43:36;100904.31;;;-2.05;100.00
44140;BME280;29803;51.048;4.686;2022-12-10T02:46:07;100907.25;;;-2.11;100.00
44140;BME280;29803;51.048;4.686;2022-12-10T02:48:39;100907.25;;;-2.11;100.00
44140;BME280;29803;51.048;4.686;2022-12-10T02:51:10;100909.88;;;-2.11;100.00
44140;BME280;29803;51.048;4.686;2022-12-10T02:53:42;100921.88;;;-2.05;100.00
44140;BME280;29803;51.048;4.686;2022-12-10T02:56:24;100910.31;;;-2.03;100.00
44140;BME280;29803;51.048;4.686;2022-12-10T03:02:16;100904.91;;;-2.00;100.00
44140;BME280;29803;51.048;4.686;2022-12-10T03:08:13;100904.13;;;-2.02;100.00
44140;BME280;29803;51.048;4.686;2022-12-10T03:10:56;100907.59;;;-2.01;100.00
44140;BME280;29803;51.048;4.686;2022-12-10T03:13:38;100913.06;;;-2.04;100.00
44140;BME280;29803;51.048;4.686;2022-12-10T03:16:14;100906.09;;;-2.05;100.00
44140;BME280;29803;51.048;4.686;2022-12-10T03:18:50;100914.06;;;-2.07;100.00
44140;BME280;29803;51.048;4.686;2022-12-10T03:21:30;100914.91;;;-2.06;100.00
44140;BME280;29803;51.048;4.686;2022-12-10T03:24:03;100906.41;;;-2.12;100.00
44140;BME280;29803;51.048;4.686;2022-12-10T03:26:37;100908.13;;;-2.11;100.00
44140;BME280;29803;51.048;4.686;2022-12-10T03:29:14;100907.53;;;-2.16;100.00
44140;BME280;29803;51.048;4.686;2022-12-10T03:31:46;100914.53;;;-2.16;100.00
44140;BME280;29803;51.048;4.686;2022-12-10T03:34:17;100909.88;;;-2.11;100.00
44140;BME280;29803;51.048;4.686;2022-12-10T03:36:48;100913.41;;;-2.11;100.00
44140;BME280;29803;51.048;4.686;2022-12-10T03:39:20;100908.78;;;-2.07;100.00
44140;BME280;29803;51.048;4.686;2022-12-10T03:41:50;100915.59;;;-2.03;100.00
44140;BME280;29803;51.048;4.686;2022-12-10T03:44:29;100915.44;;;-2.00;100.00
44140;BME280;29803;51.048;4.686;2022-12-10T03:47:02;100917.13;;;-1.99;100.00
44140;BME280;29803;51.048;4.686;2022-12-10T03:49:32;100913.47;;;-1.96;100.00
44140;BME280;29803;51.048;4.686;2022-12-10T03:52:03;100912.72;;;-1.98;100.00
44140;BME280;29803;51.048;4.686;2022-12-10T03:54:33;100909.22;;;-1.99;100.00
44140;BME280;29803;51.048;4.686;2022-12-10T03:57:04;100916.19;;;-1.98;100.00
44140;BME280;29803;51.048;4.686;2022-12-10T03:59:34;100903.81;;;-1.96;100.00
44140;BME280;29803;51.048;4.686;2022-12-10T04:02:05;100904.72;;;-1.97;100.00
44140;BME280;29803;51.048;4.686;2022-12-10T04:04:36;100897.63;;;-1.95;100.00
44140;BME280;29803;51.048;4.686;2022-12-10T04:07:06;100891.66;;;-1.98;100.00
44140;BME280;29803;51.048;4.686;2022-12-10T04:09:37;100892.53;;;-1.98;100.00
44140;BME280;29803;51.048;4.686;2022-12-10T04:12:07;100892.97;;;-2.05;100.00
44140;BME280;29803;51.048;4.686;2022-12-10T04:14:38;100892.19;;;-2.08;100.00
44140;BME280;29803;51.048;4.686;2022-12-10T04:17:27;100894.66;;;-2.04;100.00
44140;BME280;29803;51.048;4.686;2022-12-10T04:19:57;100904.13;;;-2.02;100.00
44140;BME280;29803;51.048;4.686;2022-12-10T04:22:28;100902.19;;;-1.98;100.00
44140;BME280;29803;51.048;4.686;2022-12-10T04:25:17;100909.81;;;-1.94;100.00
44140;BME280;29803;51.048;4.686;2022-12-10T04:28:06;100915.00;;;-1.92;100.00
44140;BME280;29803;51.048;4.686;2022-12-10T04:30:36;100917.28;;;-2.02;100.00
44140;BME280;29803;51.048;4.686;2022-12-10T04:33:07;100908.53;;;-2.02;100.00
44140;BME280;29803;51.048;4.686;2022-12-10T04:35:37;100917.38;;;-2.03;100.00
44140;BME280;29803;51.048;4.686;2022-12-10T04:38:07;100907.59;;;-2.01;100.00
44140;BME280;29803;51.048;4.686;2022-12-10T04:40:38;100915.34;;;-1.98;100.00
44140;BME280;29803;51.048;4.686;2022-12-10T04:43:08;100914.50;;;-1.99;100.00
44140;BME280;29803;51.048;4.686;2022-12-10T04:45:39;100916.78;;;-2.09;100.00
44140;BME280;29803;51.048;4.686;2022-12-10T04:48:09;100920.94;;;-2.04;100.00
44140;BME280;29803;51.048;4.686;2022-12-10T04:50:40;100919.41;;;-2.09;100.00
44140;BME280;29803;51.048;4.686;2022-12-10T04:53:10;100925.66;;;-2.11;100.00
44140;BME280;29803;51.048;4.686;2022-12-10T04:55:40;100939.94;;;-2.15;100.00
44140;BME280;29803;51.048;4.686;2022-12-10T04:58:11;100924.91;;;-2.13;100.00
44140;BME280;29803;51.048;4.686;2022-12-10T05:00:41;100924.91;;;-2.13;100.00
44140;BME280;29803;51.048;4.686;2022-12-10T05:03:12;100928.97;;;-2.08;100.00
44140;BME280;29803;51.048;4.686;2022-12-10T05:05:42;100923.91;;;-2.11;100.00
44140;BME280;29803;51.048;4.686;2022-12-10T05:08:13;100930.84;;;-2.10;100.00
44140;BME280;29803;51.048;4.686;2022-12-10T05:10:43;100924.75;;;-2.10;100.00
44140;BME280;29803;51.048;4.686;2022-12-10T05:13:13;100917.63;;;-2.08;100.00
44140;BME280;29803;51.048;4.686;2022-12-10T05:15:44;100927.13;;;-2.05;100.00
44140;BME280;29803;51.048;4.686;2022-12-10T05:18:14;100921.28;;;-2.11;100.00
44140;BME280;29803;51.048;4.686;2022-12-10T05:20:45;100929.22;;;-2.12;100.00
44140;BME280;29803;51.048;4.686;2022-12-10T05:23:15;100928.47;;;-2.14;100.00
44140;BME280;29803;51.048;4.686;2022-12-10T05:26:05;100923.22;;;-2.14;100.00
44140;BME280;29803;51.048;4.686;2022-12-10T05:28:38;100918.81;;;-2.14;100.00
44140;BME280;29803;51.048;4.686;2022-12-10T05:31:17;100919.56;;;-2.12;100.00
44140;BME280;29803;51.048;4.686;2022-12-10T05:33:48;100921.94;;;-2.07;100.00
44140;BME280;29803;51.048;4.686;2022-12-10T05:36:21;100926.25;;;-2.06;100.00
44140;BME280;29803;51.048;4.686;2022-12-10T05:38:54;100924.31;;;-2.02;100.00
44140;BME280;29803;51.048;4.686;2022-12-10T05:41:30;100926.69;;;-1.98;100.00
44140;BME280;29803;51.048;4.686;2022-12-10T05:44:01;100928.38;;;-1.97;100.00
44140;BME280;29803;51.048;4.686;2022-12-10T05:46:33;100923.13;;;-1.97;100.00
44140;BME280;29803;51.048;4.686;2022-12-10T05:49:05;100924.56;;;-1.91;100.00
44140;BME280;29803;51.048;4.686;2022-12-10T05:51:37;100925.16;;;-1.86;100.00
44140;BME280;29803;51.048;4.686;2022-12-10T05:54:09;100927.97;;;-1.89;100.00
44140;BME280;29803;51.048;4.686;2022-12-10T05:56:40;100932.22;;;-1.87;100.00
44140;BME280;29803;51.048;4.686;2022-12-10T05:59:10;100939.94;;;-1.84;100.00
44140;BME280;29803;51.048;4.686;2022-12-10T06:01:40;100932.16;;;-1.85;100.00
44140;BME280;29803;51.048;4.686;2022-12-10T06:04:12;100928.66;;;-1.86;100.00
44140;BME280;29803;51.048;4.686;2022-12-10T06:06:42;100939.25;;;-1.87;100.00
44140;BME280;29803;51.048;4.686;2022-12-10T06:09:13;100939.34;;;-1.89;100.00
44140;BME280;29803;51.048;4.686;2022-12-10T06:11:44;100934.09;;;-1.89;100.00
44140;BME280;29803;51.048;4.686;2022-12-10T06:14:14;100936.56;;;-1.86;100.00
44140;BME280;29803;51.048;4.686;2022-12-10T06:16:44;100945.09;;;-1.82;100.00
44140;BME280;29803;51.048;4.686;2022-12-10T06:19:15;100940.69;;;-1.82;100.00
44140;BME280;29803;51.048;4.686;2022-12-10T06:21:45;100937.22;;;-1.82;100.00
44140;BME280;29803;51.048;4.686;2022-12-10T06:24:16;100938.25;;;-1.85;100.00
44140;BME280;29803;51.048;4.686;2022-12-10T06:26:46;100950.22;;;-1.95;100.00
44140;BME280;29803;51.048;4.686;2022-12-10T06:29:17;100940.19;;;-2.04;100.00
44140;BME280;29803;51.048;4.686;2022-12-10T06:31:48;100949.84;;;-2.04;100.00
44140;BME280;29803;51.048;4.686;2022-12-10T06:34:18;100955.13;;;-2.04;100.00
44140;BME280;29803;51.048;4.686;2022-12-10T06:36:48;100953.25;;;-2.02;100.00
44140;BME280;29803;51.048;4.686;2022-12-10T06:39:19;100961.22;;;-2.04;100.00
44140;BME280;29803;51.048;4.686;2022-12-10T06:41:49;100955.19;;;-2.06;100.00
44140;BME280;29803;51.048;4.686;2022-12-10T06:44:20;100956.13;;;-2.07;100.00
44140;BME280;29803;51.048;4.686;2022-12-10T06:46:50;100958.50;;;-2.02;100.00
44140;BME280;29803;51.048;4.686;2022-12-10T06:49:20;100964.44;;;-1.99;100.00
44140;BME280;29803;51.048;4.686;2022-12-10T06:51:51;100966.13;;;-1.98;100.00
44140;BME280;29803;51.048;4.686;2022-12-10T06:54:22;100960.78;;;-1.96;100.00
44140;BME280;29803;51.048;4.686;2022-12-10T06:56:53;100966.81;;;-1.94;100.00
44140;BME280;29803;51.048;4.686;2022-12-10T06:59:24;100959.78;;;-1.94;100.00
44140;BME280;29803;51.048;4.686;2022-12-10T07:01:54;100968.53;;;-1.93;100.00
44140;BME280;29803;51.048;4.686;2022-12-10T07:04:25;100963.34;;;-1.95;100.00
44140;BME280;29803;51.048;4.686;2022-12-10T07:06:55;100975.66;;;-1.95;100.00
44140;BME280;29803;51.048;4.686;2022-12-10T07:09:26;100974.03;;;-1.98;100.00
44140;BME280;29803;51.048;4.686;2022-12-10T07:11:56;100974.19;;;-2.01;100.00
44140;BME280;29803;51.048;4.686;2022-12-10T07:14:27;100976.06;;;-2.03;100.00
44140;BME280;29803;51.048;4.686;2022-12-10T07:16:57;100982.84;;;-1.99;100.00
44140;BME280;29803;51.048;4.686;2022-12-10T07:19:28;100981.06;;;-1.98;100.00
44140;BME280;29803;51.048;4.686;2022-12-10T07:21:58;100979.19;;;-1.96;100.00
44140;BME280;29803;51.048;4.686;2022-12-10T07:24:29;100991.75;;;-2.01;100.00
44140;BME280;29803;51.048;4.686;2022-12-10T07:26:59;100983.00;;;-2.02;100.00
44140;BME280;29803;51.048;4.686;2022-12-10T07:29:29;100987.16;;;-1.98;100.00
44140;BME280;29803;51.048;4.686;2022-12-10T07:32:00;100989.81;;;-1.98;100.00
44140;BME280;29803;51.048;4.686;2022-12-10T07:34:30;100994.31;;;-2.00;100.00
44140;BME280;29803;51.048;4.686;2022-12-10T07:37:01;100999.38;;;-1.97;100.00
44140;BME280;29803;51.048;4.686;2022-12-10T07:39:32;101004.56;;;-1.95;100.00
44140;BME280;29803;51.048;4.686;2022-12-10T07:42:02;101013.63;;;-2.01;100.00
44140;BME280;29803;51.048;4.686;2022-12-10T07:44:33;101009.06;;;-1.97;100.00
44140;BME280;29803;51.048;4.686;2022-12-10T07:47:04;101011.69;;;-1.97;100.00
44140;BME280;29803;51.048;4.686;2022-12-10T07:49:35;101000.41;;;-1.99;100.00
44140;BME280;29803;51.048;4.686;2022-12-10T07:52:05;100997.19;;;-2.04;100.00
44140;BME280;29803;51.048;4.686;2022-12-10T07:54:36;101006.16;;;-2.09;100.00
44140;BME280;29803;51.048;4.686;2022-12-10T07:57:06;101016.81;;;-2.12;100.00
44140;BME280;29803;51.048;4.686;2022-12-10T07:59:37;101020.00;;;-2.05;100.00
44140;BME280;29803;51.048;4.686;2022-12-10T08:02:08;101022.44;;;-2.02;100.00
44140;BME280;29803;51.048;4.686;2022-12-10T08:04:39;101021.84;;;-2.07;100.00
44140;BME280;29803;51.048;4.686;2022-12-10T08:07:09;101013.94;;;-2.07;100.00
44140;BME280;29803;51.048;4.686;2022-12-10T08:09:40;101018.03;;;-2.01;100.00
44140;BME280;29803;51.048;4.686;2022-12-10T08:12:10;101031.78;;;-1.96;100.00
44140;BME280;29803;51.048;4.686;2022-12-10T08:14:41;101028.31;;;-1.97;100.00
44140;BME280;29803;51.048;4.686;2022-12-10T08:17:11;101031.63;;;-1.93;100.00
44140;BME280;29803;51.048;4.686;2022-12-10T08:19:42;101037.41;;;-1.87;100.00
44140;BME280;29803;51.048;4.686;2022-12-10T08:22:12;101042.50;;;-1.84;100.00
44140;BME280;29803;51.048;4.686;2022-12-10T08:24:43;101039.78;;;-1.82;100.00
44140;BME280;29803;51.048;4.686;2022-12-10T08:27:13;101043.25;;;-1.82;100.00
44140;BME280;29803;51.048;4.686;2022-12-10T08:29:43;101042.25;;;-1.79;100.00
44140;BME280;29803;51.048;4.686;2022-12-10T08:32:14;101047.69;;;-1.82;100.00
44140;BME280;29803;51.048;4.686;2022-12-10T08:34:44;101036.22;;;-1.81;100.00
44140;BME280;29803;51.048;4.686;2022-12-10T08:37:15;101043.69;;;-1.89;100.00
44140;BME280;29803;51.048;4.686;2022-12-10T08:39:45;101048.97;;;-2.06;100.00
44140;BME280;29803;51.048;4.686;2022-12-10T08:42:16;101057.88;;;-2.09;100.00
44140;BME280;29803;51.048;4.686;2022-12-10T08:44:46;101048.44;;;-2.13;100.00
44140;BME280;29803;51.048;4.686;2022-12-10T08:47:17;101054.31;;;-2.08;100.00
44140;BME280;29803;51.048;4.686;2022-12-10T08:49:47;101057.19;;;-2.13;100.00
44140;BME280;29803;51.048;4.686;2022-12-10T08:52:17;101052.88;;;-2.14;100.00
44140;BME280;29803;51.048;4.686;2022-12-10T08:54:48;101053.09;;;-2.18;100.00
44140;BME280;29803;51.048;4.686;2022-12-10T08:57:18;101059.19;;;-2.18;100.00
44140;BME280;29803;51.048;4.686;2022-12-10T08:59:49;101062.91;;;-2.22;100.00
44140;BME280;29803;51.048;4.686;2022-12-10T09:02:19;101060.84;;;-2.15;100.00
44140;BME280;29803;51.048;4.686;2022-12-10T09:04:50;101056.56;;;-2.18;100.00
44140;BME280;29803;51.048;4.686;2022-12-10T09:07:20;101062.13;;;-2.06;100.00
44140;BME280;29803;51.048;4.686;2022-12-10T09:09:51;101062.81;;;-2.03;100.00
44140;BME280;29803;51.048;4.686;2022-12-10T09:12:22;101057.41;;;-2.00;100.00
44140;BME280;29803;51.048;4.686;2022-12-10T09:14:52;101063.41;;;-1.98;100.00
44140;BME280;29803;51.048;4.686;2022-12-10T09:17:23;101062.19;;;-1.91;100.00
44140;BME280;29803;51.048;4.686;2022-12-10T09:19:53;101066.28;;;-1.85;100.00
44140;BME280;29803;51.048;4.686;2022-12-10T09:22:24;101077.19;;;-1.93;100.00
44140;BME280;29803;51.048;4.686;2022-12-10T09:24:54;101079.91;;;-1.94;100.00
44140;BME280;29803;51.048;4.686;2022-12-10T09:27:25;101084.22;;;-1.93;100.00
44140;BME280;29803;51.048;4.686;2022-12-10T09:29:55;101085.84;;;-1.91;100.00
44140;BME280;29803;51.048;4.686;2022-12-10T09:32:26;101084.59;;;-1.84;100.00
44140;BME280;29803;51.048;4.686;2022-12-10T09:34:56;101088.31;;;-1.88;100.00
44140;BME280;29803;51.048;4.686;2022-12-10T09:37:26;101095.94;;;-1.83;100.00
44140;BME280;29803;51.048;4.686;2022-12-10T09:39:57;101090.78;;;-1.85;100.00
44140;BME280;29803;51.048;4.686;2022-12-10T09:43:36;101098.38;;;-1.96;100.00
44140;BME280;29803;51.048;4.686;2022-12-10T09:46:16;101096.19;;;-1.88;100.00
44140;BME280;29803;51.048;4.686;2022-12-10T09:51:28;101111.50;;;-1.78;100.00
44140;BME280;29803;51.048;4.686;2022-12-10T09:54:00;101105.19;;;-1.76;100.00
44140;BME280;29803;51.048;4.686;2022-12-10T09:56:34;101113.38;;;-1.80;100.00
44140;BME280;29803;51.048;4.686;2022-12-10T09:59:42;101110.13;;;-1.86;100.00
44140;BME280;29803;51.048;4.686;2022-12-10T10:02:29;101100.50;;;-1.69;100.00
44140;BME280;29803;51.048;4.686;2022-12-10T10:05:29;101103.72;;;-1.64;100.00
44140;BME280;29803;51.048;4.686;2022-12-10T10:08:05;101101.34;;;-1.69;100.00
44140;BME280;29803;51.048;4.686;2022-12-10T10:10:39;101101.44;;;-1.70;100.00
44140;BME280;29803;51.048;4.686;2022-12-10T10:14:00;101101.56;;;-1.73;100.00
44140;BME280;29803;51.048;4.686;2022-12-10T10:16:25;101096.81;;;-1.83;100.00
44140;BME280;29803;51.048;4.686;2022-12-10T10:21:38;101101.22;;;-1.83;100.00
44140;BME280;29803;51.048;4.686;2022-12-10T10:24:15;101109.09;;;-1.83;100.00
44140;BME280;29803;51.048;4.686;2022-12-10T10:26:47;101109.00;;;-1.82;100.00
44140;BME280;29803;51.048;4.686;2022-12-10T10:29:19;101100.88;;;-1.77;100.00
44140;BME280;29803;51.048;4.686;2022-12-10T10:34:55;101102.78;;;-1.63;100.00
44140;BME280;29803;51.048;4.686;2022-12-10T10:37:29;101100.50;;;-1.53;100.00
44140;BME280;29803;51.048;4.686;2022-12-10T10:40:01;101103.00;;;-1.50;100.00
44140;BME280;29803;51.048;4.686;2022-12-10T10:42:39;101107.72;;;-1.41;100.00
44140;BME280;29803;51.048;4.686;2022-12-10T10:45:33;101102.47;;;-1.41;100.00
44140;BME280;29803;51.048;4.686;2022-12-10T10:50:42;101102.28;;;-1.54;100.00
44140;BME280;29803;51.048;4.686;2022-12-10T10:53:22;101092.13;;;-1.44;100.00
44140;BME280;29803;51.048;4.686;2022-12-10T10:55:54;101105.09;;;-1.57;100.00
44140;BME280;29803;51.048;4.686;2022-12-10T10:58:27;101107.22;;;-1.48;100.00
44140;BME280;29803;51.048;4.686;2022-12-10T11:01:07;101106.88;;;-1.42;100.00
44140;BME280;29803;51.048;4.686;2022-12-10T11:03:47;101102.81;;;-1.32;100.00
44140;BME280;29803;51.048;4.686;2022-12-10T11:06:18;101105.19;;;-1.43;100.00
44140;BME280;29803;51.048;4.686;2022-12-10T11:08:51;101099.78;;;-1.40;100.00
44140;BME280;29803;51.048;4.686;2022-12-10T11:11:34;101112.00;;;-1.39;100.00
44140;BME280;29803;51.048;4.686;2022-12-10T11:17:21;101106.03;;;-1.42;100.00
44140;BME280;29803;51.048;4.686;2022-12-10T11:19:59;101099.69;;;-1.38;100.00
44140;BME280;29803;51.048;4.686;2022-12-10T11:22:32;101104.53;;;-1.31;100.00
44140;BME280;29803;51.048;4.686;2022-12-10T11:25:10;101101.97;;;-1.48;100.00
44140;BME280;29803;51.048;4.686;2022-12-10T11:30:34;101088.31;;;-1.39;100.00
44140;BME280;29803;51.048;4.686;2022-12-10T11:33:21;101092.97;;;-1.28;100.00
44140;BME280;29803;51.048;4.686;2022-12-10T11:39:39;101081.94;;;-1.35;100.00
44140;BME280;29803;51.048;4.686;2022-12-10T11:41:49;101098.16;;;-1.26;100.00
44140;BME280;29803;51.048;4.686;2022-12-10T11:52:53;101082.34;;;-1.11;100.00
44140;BME280;29803;51.048;4.686;2022-12-10T11:55:38;101082.94;;;-1.06;100.00
44140;BME280;29803;51.048;4.686;2022-12-10T12:04:21;101089.25;;;-1.08;100.00
44140;BME280;29803;51.048;4.686;2022-12-10T12:07:23;101086.00;;;-0.97;100.00
44140;BME280;29803;51.048;4.686;2022-12-10T12:13:04;101084.63;;;-0.89;100.00
44140;BME280;29803;51.048;4.686;2022-12-10T12:15:43;101079.13;;;-0.84;100.00
44140;BME280;29803;51.048;4.686;2022-12-10T12:18:39;101092.91;;;-0.95;100.00
44140;BME280;29803;51.048;4.686;2022-12-10T12:21:14;101083.78;;;-0.89;100.00
44140;BME280;29803;51.048;4.686;2022-12-10T12:26:32;101085.44;;;-0.72;100.00
44140;BME280;29803;51.048;4.686;2022-12-10T12:31:46;101080.59;;;-0.64;100.00
44140;BME280;29803;51.048;4.686;2022-12-10T12:34:21;101075.66;;;-0.55;100.00
44140;BME280;29803;51.048;4.686;2022-12-10T12:36:55;101087.31;;;-0.59;100.00
44140;BME280;29803;51.048;4.686;2022-12-10T12:42:25;101081.31;;;-0.46;100.00
44140;BME280;29803;51.048;4.686;2022-12-10T12:45:02;101080.72;;;-0.52;100.00
44140;BME280;29803;51.048;4.686;2022-12-10T12:47:47;101076.34;;;-0.37;100.00
44140;BME280;29803;51.048;4.686;2022-12-10T12:53:09;101082.81;;;-0.42;100.00
44140;BME280;29803;51.048;4.686;2022-12-10T12:58:53;101085.19;;;-0.38;100.00
44140;BME280;29803;51.048;4.686;2022-12-10T13:02:02;101090.91;;;-0.45;100.00
44140;BME280;29803;51.048;4.686;2022-12-10T13:04:37;101095.53;;;-0.49;100.00
44140;BME280;29803;51.048;4.686;2022-12-10T13:07:26;101098.16;;;-0.49;100.00
44140;BME280;29803;51.048;4.686;2022-12-10T13:12:48;101101.19;;;-0.41;100.00
44140;BME280;29803;51.048;4.686;2022-12-10T13:15:34;101097.44;;;-0.37;100.00
44140;BME280;29803;51.048;4.686;2022-12-10T13:21:24;101103.22;;;-0.30;100.00
44140;BME280;29803;51.048;4.686;2022-12-10T13:24:07;101100.56;;;-0.30;100.00
44140;BME280;29803;51.048;4.686;2022-12-10T13:27:01;101102.16;;;-0.28;100.00
44140;BME280;29803;51.048;4.686;2022-12-10T13:29:56;101098.69;;;-0.28;100.00
44140;BME280;29803;51.048;4.686;2022-12-10T13:43:27;101119.06;;;-0.02;100.00
44140;BME280;29803;51.048;4.686;2022-12-10T13:46:35;101115.78;;;0.09;100.00
44140;BME280;29803;51.048;4.686;2022-12-10T13:49:28;101110.91;;;0.17;100.00
44140;BME280;29803;51.048;4.686;2022-12-10T13:52:04;101114.22;;;0.21;100.00
44140;BME280;29803;51.048;4.686;2022-12-10T13:54:58;101119.38;;;0.22;100.00
44140;BME280;29803;51.048;4.686;2022-12-10T14:05:42;101122.47;;;0.15;100.00
44140;BME280;29803;51.048;4.686;2022-12-10T14:08:24;101118.66;;;0.20;100.00
44140;BME280;29803;51.048;4.686;2022-12-10T14:10:58;101120.97;;;0.25;100.00
44140;BME280;29803;51.048;4.686;2022-12-10T14:13:41;101124.56;;;0.24;100.00
44140;BME280;29803;51.048;4.686;2022-12-10T14:16:14;101127.97;;;0.26;100.00
44140;BME280;29803;51.048;4.686;2022-12-10T14:18:52;101120.13;;;0.24;100.00
44140;BME280;29803;51.048;4.686;2022-12-10T14:21:24;101126.25;;;0.25;100.00
44140;BME280;29803;51.048;4.686;2022-12-10T14:23:55;101132.75;;;0.19;100.00
44140;BME280;29803;51.048;4.686;2022-12-10T14:26:35;101134.66;;;0.17;100.00
44140;BME280;29803;51.048;4.686;2022-12-10T14:29:18;101125.88;;;0.17;100.00
44140;BME280;29803;51.048;4.686;2022-12-10T14:31:50;101125.22;;;0.13;100.00
44140;BME280;29803;51.048;4.686;2022-12-10T14:34:26;101127.00;;;0.13;100.00
44140;BME280;29803;51.048;4.686;2022-12-10T14:37:01;101124.94;;;0.18;100.00
44140;BME280;29803;51.048;4.686;2022-12-10T14:39:33;101126.63;;;0.19;100.00
44140;BME280;29803;51.048;4.686;2022-12-10T14:42:05;101134.81;;;0.14;100.00
44140;BME280;29803;51.048;4.686;2022-12-10T14:44:38;101138.25;;;0.16;100.00
44140;BME280;29803;51.048;4.686;2022-12-10T14:47:18;101132.69;;;0.21;100.00
44140;BME280;29803;51.048;4.686;2022-12-10T14:49:51;101135.97;;;0.24;100.00
44140;BME280;29803;51.048;4.686;2022-12-10T14:52:30;101138.59;;;0.24;100.00